sensor_id;sensor_type;location;lat;lon;timestamp;pressure;altitude;pressure_sealevel;temperature;humidity
76022;BME280;64718;52.124;6.226;2023-04-25T00:01:56;100980.22;;;5.52;100.00
76022;BME280;64718;52.124;6.226;2023-04-25T00:04:24;100988.06;;;5.48;100.00
76022;BME280;64718;52.124;6.226;2023-04-25T00:06:51;100990.81;;;5.38;100.00
76022;BME280;64718;52.124;6.226;2023-04-25T00:09:18;100988.44;;;5.28;100.00
76022;BME280;64718;52.124;6.226;2023-04-25T00:11:44;100985.94;;;5.23;100.00
76022;BME280;64718;52.124;6.226;2023-04-25T00:14:11;100989.66;;;5.07;100.00
76022;BME280;64718;52.124;6.226;2023-04-25T00:16:37;100994.13;;;4.97;100.00
76022;BME280;64718;52.124;6.226;2023-04-25T00:19:06;100993.50;;;4.83;100.00
76022;BME280;64718;52.124;6.226;2023-04-25T00:21:34;101001.28;;;4.80;100.00
76022;BME280;64718;52.124;6.226;2023-04-25T00:24:03;101001.34;;;4.77;100.00
76022;BME280;64718;52.124;6.226;2023-04-25T00:26:29;101012.66;;;4.68;100.00
76022;BME280;64718;52.124;6.226;2023-04-25T00:28:56;101010.13;;;4.64;100.00
76022;BME280;64718;52.124;6.226;2023-04-25T00:31:22;101007.41;;;4.73;100.00
76022;BME280;64718;52.124;6.226;2023-04-25T00:33:49;101008.25;;;4.75;100.00
76022;BME280;64718;52.124;6.226;2023-04-25T00:36:15;101000.59;;;4.70;100.00
76022;BME280;64718;52.124;6.226;2023-04-25T00:38:44;101006.56;;;4.72;100.00
76022;BME280;64718;52.124;6.226;2023-04-25T00:41:11;101009.28;;;4.63;100.00
76022;BME280;64718;52.124;6.226;2023-04-25T00:43:39;101002.50;;;4.56;100.00
76022;BME280;64718;52.124;6.226;2023-04-25T00:46:06;101001.72;;;4.51;100.00
76022;BME280;64718;52.124;6.226;2023-04-25T00:48:32;100996.66;;;4.45;100.00
76022;BME280;64718;52.124;6.226;2023-04-25T00:50:59;100992.47;;;4.38;100.00
76022;BME280;64718;52.124;6.226;2023-04-25T00:53:27;100999.47;;;4.30;100.00
76022;BME280;64718;52.124;6.226;2023-04-25T00:55:55;101004.31;;;4.50;100.00
76022;BME280;64718;52.124;6.226;2023-04-25T00:58:22;101002.50;;;4.56;100.00
76022;BME280;64718;52.124;6.226;2023-04-25T01:00:50;101000.59;;;4.70;100.00
76022;BME280;64718;52.124;6.226;2023-04-25T01:03:18;101006.41;;;4.82;100.00
76022;BME280;64718;52.124;6.226;2023-04-25T01:05:46;101008.78;;;4.94;100.00
76022;BME280;64718;52.124;6.226;2023-04-25T01:08:13;101008.69;;;5.00;100.00
76022;BME280;64718;52.124;6.226;2023-04-25T01:10:40;101007.66;;;5.10;100.00
76022;BME280;64718;52.124;6.226;2023-04-25T01:13:08;101011.03;;;5.12;100.00
76022;BME280;64718;52.124;6.226;2023-04-25T01:15:34;101016.16;;;5.15;100.00
76022;BME280;64718;52.124;6.226;2023-04-25T01:18:02;101016.09;;;5.18;100.00
76022;BME280;64718;52.124;6.226;2023-04-25T01:20:29;101024.69;;;5.20;100.00
76022;BME280;64718;52.124;6.226;2023-04-25T01:22:59;101022.06;;;5.22;100.00
76022;BME280;64718;52.124;6.226;2023-04-25T01:25:27;101028.91;;;5.24;100.00
76022;BME280;64718;52.124;6.226;2023-04-25T01:27:54;101029.69;;;5.29;100.00
76022;BME280;64718;52.124;6.226;2023-04-25T01:30:21;101031.44;;;5.27;100.00
76022;BME280;64718;52.124;6.226;2023-04-25T01:32:48;101034.91;;;5.25;100.00
76022;BME280;64718;52.124;6.226;2023-04-25T01:35:15;101033.22;;;5.24;100.00
76022;BME280;64718;52.124;6.226;2023-04-25T01:37:42;101045.19;;;5.28;100.00
76022;BME280;64718;52.124;6.226;2023-04-25T01:40:11;101048.59;;;5.28;100.00
76022;BME280;64718;52.124;6.226;2023-04-25T01:42:41;101040.91;;;5.27;100.00
76022;BME280;64718;52.124;6.226;2023-04-25T01:45:09;101041.78;;;5.26;100.00
76022;BME280;64718;52.124;6.226;2023-04-25T01:47:36;101041.81;;;5.24;100.00
76022;BME280;64718;52.124;6.226;2023-04-25T01:50:03;101047.06;;;5.17;100.00
76022;BME280;64718;52.124;6.226;2023-04-25T01:52:30;101040.31;;;5.09;100.00
76022;BME280;64718;52.124;6.226;2023-04-25T01:54:57;101044.78;;;4.98;100.00
76022;BME280;64718;52.124;6.226;2023-04-25T01:57:25;101044.19;;;4.83;100.00
76022;BME280;64718;52.124;6.226;2023-04-25T01:59:53;101049.56;;;4.69;100.00
76022;BME280;64718;52.124;6.226;2023-04-25T02:02:22;101056.56;;;4.58;100.00
76022;BME280;64718;52.124;6.226;2023-04-25T02:04:48;101052.25;;;4.60;100.00
76022;BME280;64718;52.124;6.226;2023-04-25T02:07:15;101048.03;;;4.54;100.00
76022;BME280;64718;52.124;6.226;2023-04-25T02:09:42;101059.94;;;4.61;100.00
76022;BME280;64718;52.124;6.226;2023-04-25T02:12:09;101062.41;;;4.72;100.00
76022;BME280;64718;52.124;6.226;2023-04-25T02:14:37;101058.03;;;4.77;100.00
76022;BME280;64718;52.124;6.226;2023-04-25T02:17:04;101062.22;;;4.83;100.00
76022;BME280;64718;52.124;6.226;2023-04-25T02:19:30;101065.59;;;4.88;100.00
76022;BME280;64718;52.124;6.226;2023-04-25T02:21:57;101064.72;;;4.87;100.00
76022;BME280;64718;52.124;6.226;2023-04-25T02:24:23;101059.59;;;4.86;100.00
76022;BME280;64718;52.124;6.226;2023-04-25T02:26:50;101064.78;;;4.84;100.00
76022;BME280;64718;52.124;6.226;2023-04-25T02:29:17;101069.19;;;4.78;100.00
76022;BME280;64718;52.124;6.226;2023-04-25T02:31:45;101067.50;;;4.75;100.00
76022;BME280;64718;52.124;6.226;2023-04-25T02:34:12;101068.47;;;4.68;100.00
76022;BME280;64718;52.124;6.226;2023-04-25T02:36:38;101069.47;;;4.56;100.00
76022;BME280;64718;52.124;6.226;2023-04-25T02:39:05;101067.03;;;4.45;100.00
76022;BME280;64718;52.124;6.226;2023-04-25T02:41:32;101081.78;;;4.34;100.00
76022;BME280;64718;52.124;6.226;2023-04-25T02:43:58;101084.59;;;4.18;100.00
76022;BME280;64718;52.124;6.226;2023-04-25T02:46:25;101079.56;;;4.08;100.00
76022;BME280;64718;52.124;6.226;2023-04-25T02:48:52;101077.91;;;4.01;100.00
76022;BME280;64718;52.124;6.226;2023-04-25T02:51:19;101077.81;;;4.10;100.00
76022;BME280;64718;52.124;6.226;2023-04-25T02:53:45;101079.56;;;4.08;100.00
76022;BME280;64718;52.124;6.226;2023-04-25T02:56:12;101086.44;;;4.03;100.00
76022;BME280;64718;52.124;6.226;2023-04-25T02:58:38;101083.03;;;4.03;100.00
76022;BME280;64718;52.124;6.226;2023-04-25T03:01:05;101088.19;;;4.01;100.00
76022;BME280;64718;52.124;6.226;2023-04-25T03:03:32;101093.38;;;3.98;100.00
76022;BME280;64718;52.124;6.226;2023-04-25T03:05:59;101099.38;;;3.99;100.00
76022;BME280;64718;52.124;6.226;2023-04-25T03:08:26;101097.72;;;3.95;100.00
76022;BME280;64718;52.124;6.226;2023-04-25T03:10:57;101083.25;;;3.85;100.00
76022;BME280;64718;52.124;6.226;2023-04-25T03:13:24;101091.06;;;3.75;100.00
76022;BME280;64718;52.124;6.226;2023-04-25T03:15:50;101093.75;;;3.65;100.00
76022;BME280;64718;52.124;6.226;2023-04-25T03:18:17;101091.28;;;3.54;100.00
76022;BME280;64718;52.124;6.226;2023-04-25T03:20:43;101092.16;;;3.52;100.00
76022;BME280;64718;52.124;6.226;2023-04-25T03:23:11;101097.28;;;3.53;100.00
76022;BME280;64718;52.124;6.226;2023-04-25T03:25:38;101092.22;;;3.42;100.00
76022;BME280;64718;52.124;6.226;2023-04-25T03:28:04;101094.88;;;3.33;100.00
76022;BME280;64718;52.124;6.226;2023-04-25T03:30:31;101093.22;;;3.26;100.00
76022;BME280;64718;52.124;6.226;2023-04-25T03:32:57;101090.66;;;3.26;100.00
76022;BME280;64718;52.124;6.226;2023-04-25T03:35:24;101089.81;;;3.24;100.00
76022;BME280;64718;52.124;6.226;2023-04-25T03:37:51;101097.66;;;3.10;100.00
76022;BME280;64718;52.124;6.226;2023-04-25T03:40:19;101099.34;;;3.11;100.00
76022;BME280;64718;52.124;6.226;2023-04-25T03:42:45;101096.72;;;3.19;100.00
76022;BME280;64718;52.124;6.226;2023-04-25T03:45:12;101101.00;;;3.18;100.00
76022;BME280;64718;52.124;6.226;2023-04-25T03:47:38;101107.78;;;3.27;100.00
76022;BME280;64718;52.124;6.226;2023-04-25T03:50:06;101110.31;;;3.33;100.00
76022;BME280;64718;52.124;6.226;2023-04-25T03:52:32;101107.63;;;3.45;100.00
76022;BME280;64718;52.124;6.226;2023-04-25T03:54:59;101113.59;;;3.51;100.00
76022;BME280;64718;52.124;6.226;2023-04-25T03:57:27;101116.09;;;3.60;100.00
76022;BME280;64718;52.124;6.226;2023-04-25T03:59:53;101121.16;;;3.66;100.00
76022;BME280;64718;52.124;6.226;2023-04-25T04:02:20;101125.38;;;3.73;100.00
76022;BME280;64718;52.124;6.226;2023-04-25T04:04:46;101130.44;;;3.82;100.00
76022;BME280;64718;52.124;6.226;2023-04-25T04:07:13;101136.41;;;3.86;100.00
76022;BME280;64718;52.124;6.226;2023-04-25T04:09:39;101142.34;;;3.92;100.00
76022;BME280;64718;52.124;6.226;2023-04-25T04:12:06;101152.59;;;3.95;100.00
76022;BME280;64718;52.124;6.226;2023-04-25T04:14:34;101153.44;;;3.96;100.00
76022;BME280;64718;52.124;6.226;2023-04-25T04:17:00;101151.75;;;3.93;100.00
76022;BME280;64718;52.124;6.226;2023-04-25T04:19:27;101145.78;;;3.91;100.00
76022;BME280;64718;52.124;6.226;2023-04-25T04:21:53;101146.63;;;3.92;100.00
76022;BME280;64718;52.124;6.226;2023-04-25T04:24:20;101138.06;;;3.91;100.00
76022;BME280;64718;52.124;6.226;2023-04-25T04:26:47;101126.91;;;3.92;100.00
76022;BME280;64718;52.124;6.226;2023-04-25T04:29:13;101126.91;;;3.92;100.00
76022;BME280;64718;52.124;6.226;2023-04-25T04:31:47;101123.47;;;3.92;100.00
76022;BME280;64718;52.124;6.226;2023-04-25T04:34:14;101132.06;;;3.91;100.00
76022;BME280;64718;52.124;6.226;2023-04-25T04:36:41;101131.22;;;3.89;100.00
76022;BME280;64718;52.124;6.226;2023-04-25T04:39:08;101143.16;;;3.94;100.00
76022;BME280;64718;52.124;6.226;2023-04-25T04:41:36;101147.44;;;3.97;100.00
76022;BME280;64718;52.124;6.226;2023-04-25T04:44:02;101149.16;;;3.95;100.00
76022;BME280;64718;52.124;6.226;2023-04-25T04:46:29;101148.41;;;3.87;100.00
76022;BME280;64718;52.124;6.226;2023-04-25T04:48:57;101162.13;;;3.86;100.00
76022;BME280;64718;52.124;6.226;2023-04-25T04:51:24;101163.88;;;3.82;100.00
76022;BME280;64718;52.124;6.226;2023-04-25T04:53:50;101161.31;;;3.82;100.00
76022;BME280;64718;52.124;6.226;2023-04-25T04:56:17;101161.31;;;3.82;100.00
76022;BME280;64718;52.124;6.226;2023-04-25T04:58:46;101168.13;;;3.85;100.00
76022;BME280;64718;52.124;6.226;2023-04-25T05:01:14;101180.06;;;3.92;100.00
76022;BME280;64718;52.124;6.226;2023-04-25T05:03:41;101179.22;;;3.91;100.00
76022;BME280;64718;52.124;6.226;2023-04-25T05:06:09;101181.78;;;3.93;100.00
76022;BME280;64718;52.124;6.226;2023-04-25T05:08:36;101182.59;;;3.96;100.00
76022;BME280;64718;52.124;6.226;2023-04-25T05:11:02;101188.59;;;3.98;100.00
76022;BME280;64718;52.124;6.226;2023-04-25T05:13:29;101190.25;;;4.04;100.00
76022;BME280;64718;52.124;6.226;2023-04-25T05:15:56;101197.00;;;4.16;100.00
76022;BME280;64718;52.124;6.226;2023-04-25T05:18:22;101200.41;;;4.19;100.00
76022;BME280;64718;52.124;6.226;2023-04-25T05:20:49;101202.06;;;4.23;100.00
76022;BME280;64718;52.124;6.226;2023-04-25T05:23:17;101212.28;;;4.31;100.00
76022;BME280;64718;52.124;6.226;2023-04-25T05:25:43;101214.81;;;4.34;100.00
76022;BME280;64718;52.124;6.226;2023-04-25T05:28:11;101219.06;;;4.38;100.00
76022;BME280;64718;52.124;6.226;2023-04-25T05:30:38;101215.66;;;4.37;100.00
76022;BME280;64718;52.124;6.226;2023-04-25T05:33:05;101226.72;;;4.45;100.00
76022;BME280;64718;52.124;6.226;2023-04-25T05:35:32;101230.13;;;4.48;100.00
76022;BME280;64718;52.124;6.226;2023-04-25T05:37:58;101236.13;;;4.48;100.00
76022;BME280;64718;52.124;6.226;2023-04-25T05:40:26;101237.81;;;4.51;100.00
76022;BME280;64718;52.124;6.226;2023-04-25T05:42:53;101242.97;;;4.51;100.00
76022;BME280;64718;52.124;6.226;2023-04-25T05:45:19;101239.47;;;4.55;100.00
76022;BME280;64718;52.124;6.226;2023-04-25T05:47:46;101236.09;;;4.51;100.00
76022;BME280;64718;52.124;6.226;2023-04-25T05:50:12;101239.53;;;4.50;100.00
76022;BME280;64718;52.124;6.226;2023-04-25T05:52:39;101244.72;;;4.47;100.00
76022;BME280;64718;52.124;6.226;2023-04-25T05:55:06;101245.59;;;4.44;100.00
76022;BME280;64718;52.124;6.226;2023-04-25T05:57:34;101248.22;;;4.41;100.00
76022;BME280;64718;52.124;6.226;2023-04-25T06:00:00;101251.63;;;4.43;100.00
76022;BME280;64718;52.124;6.226;2023-04-25T06:02:28;101246.47;;;4.43;100.00
76022;BME280;64718;52.124;6.226;2023-04-25T06:04:54;101249.00;;;4.50;100.00
76022;BME280;64718;52.124;6.226;2023-04-25T06:07:21;101248.09;;;4.52;100.00
76022;BME280;64718;52.124;6.226;2023-04-25T06:09:49;101252.31;;;4.59;100.00
76022;BME280;64718;52.124;6.226;2023-04-25T06:12:16;101254.81;;;4.67;100.00
76022;BME280;64718;52.124;6.226;2023-04-25T06:14:44;101258.16;;;4.75;100.00
76022;BME280;64718;52.124;6.226;2023-04-25T06:17:10;101264.97;;;4.81;100.00
76022;BME280;64718;52.124;6.226;2023-04-25T06:19:37;101262.31;;;4.87;100.00
76022;BME280;64718;52.124;6.226;2023-04-25T06:22:03;101258.81;;;4.92;100.00
76022;BME280;64718;52.124;6.226;2023-04-25T06:24:30;101262.97;;;5.01;100.00
76022;BME280;64718;52.124;6.226;2023-04-25T06:26:56;101267.97;;;5.15;100.00
76022;BME280;64718;52.124;6.226;2023-04-25T06:29:23;101270.56;;;5.13;100.00
76022;BME280;64718;52.124;6.226;2023-04-25T06:31:51;101276.66;;;5.07;100.00
76022;BME280;64718;52.124;6.226;2023-04-25T06:34:17;101267.88;;;5.22;100.00
76022;BME280;64718;52.124;6.226;2023-04-25T06:36:44;101265.53;;;6.65;100.00
76022;BME280;64718;52.124;6.226;2023-04-25T06:39:10;101270.78;;;8.17;100.00
76022;BME280;64718;52.124;6.226;2023-04-25T06:41:37;101275.16;;;7.79;96.54
76022;BME280;64718;52.124;6.226;2023-04-25T06:44:03;101279.31;;;7.09;100.00
76022;BME280;64718;52.124;6.226;2023-04-25T06:46:30;101281.31;;;6.52;100.00
76022;BME280;64718;52.124;6.226;2023-04-25T06:48:58;101280.09;;;6.23;100.00
76022;BME280;64718;52.124;6.226;2023-04-25T06:51:25;101286.63;;;5.93;100.00
76022;BME280;64718;52.124;6.226;2023-04-25T06:53:54;101284.09;;;5.89;100.00
76022;BME280;64718;52.124;6.226;2023-04-25T06:56:20;101291.81;;;5.92;100.00
76022;BME280;64718;52.124;6.226;2023-04-25T06:58:48;101292.50;;;6.03;100.00
76022;BME280;64718;52.124;6.226;2023-04-25T07:01:15;101292.19;;;6.21;100.00
76022;BME280;64718;52.124;6.226;2023-04-25T07:03:41;101286.81;;;6.32;100.00
76022;BME280;64718;52.124;6.226;2023-04-25T07:06:09;101290.06;;;6.45;100.00
76022;BME280;64718;52.124;6.226;2023-04-25T07:08:36;101288.97;;;6.56;100.00
76022;BME280;64718;52.124;6.226;2023-04-25T07:11:03;101297.41;;;6.66;100.00
76022;BME280;64718;52.124;6.226;2023-04-25T07:13:29;101293.00;;;6.71;100.00
76022;BME280;64718;52.124;6.226;2023-04-25T07:15:56;101302.59;;;7.09;100.00
76022;BME280;64718;52.124;6.226;2023-04-25T07:18:23;101288.28;;;9.34;95.42
76022;BME280;64718;52.124;6.226;2023-04-25T07:20:49;101293.28;;;10.96;85.74
76022;BME280;64718;52.124;6.226;2023-04-25T07:23:17;101291.69;;;10.92;80.05
76022;BME280;64718;52.124;6.226;2023-04-25T07:25:43;101295.91;;;11.41;77.44
76022;BME280;64718;52.124;6.226;2023-04-25T07:28:10;101296.03;;;12.25;71.52
76022;BME280;64718;52.124;6.226;2023-04-25T07:30:36;101290.72;;;12.67;72.02
76022;BME280;64718;52.124;6.226;2023-04-25T07:33:03;101298.28;;;12.13;72.92
76022;BME280;64718;52.124;6.226;2023-04-25T07:35:30;101304.06;;;11.10;73.47
76022;BME280;64718;52.124;6.226;2023-04-25T07:37:56;101300.28;;;12.06;70.25
76022;BME280;64718;52.124;6.226;2023-04-25T07:40:25;101312.22;;;12.33;68.16
76022;BME280;64718;52.124;6.226;2023-04-25T07:42:52;101306.94;;;12.13;66.58
76022;BME280;64718;52.124;6.226;2023-04-25T07:45:18;101306.72;;;12.60;67.77
76022;BME280;64718;52.124;6.226;2023-04-25T07:47:45;101311.09;;;11.75;70.96
76022;BME280;64718;52.124;6.226;2023-04-25T07:50:11;101313.44;;;13.05;69.03
76022;BME280;64718;52.124;6.226;2023-04-25T07:52:38;101311.59;;;13.07;68.34
76022;BME280;64718;52.124;6.226;2023-04-25T07:55:05;101319.72;;;12.41;66.19
76022;BME280;64718;52.124;6.226;2023-04-25T07:57:33;101325.66;;;12.45;70.04
76022;BME280;64718;52.124;6.226;2023-04-25T07:59:59;101316.03;;;12.86;66.70
76022;BME280;64718;52.124;6.226;2023-04-25T08:02:26;101335.97;;;11.15;73.08
76022;BME280;64718;52.124;6.226;2023-04-25T08:04:53;101325.97;;;12.17;69.58
76022;BME280;64718;52.124;6.226;2023-04-25T08:07:20;101319.41;;;13.27;68.07
76022;BME280;64718;52.124;6.226;2023-04-25T08:09:46;101325.44;;;11.87;70.25
76022;BME280;64718;52.124;6.226;2023-04-25T08:12:13;101336.84;;;11.37;71.82
76022;BME280;64718;52.124;6.226;2023-04-25T08:14:41;101352.38;;;10.69;71.20
76022;BME280;64718;52.124;6.226;2023-04-25T08:17:07;101357.13;;;10.03;77.59
76022;BME280;64718;52.124;6.226;2023-04-25T08:19:34;101363.34;;;9.70;73.51
76022;BME280;64718;52.124;6.226;2023-04-25T08:22:00;101384.72;;;9.50;78.91
76022;BME280;64718;52.124;6.226;2023-04-25T08:24:27;101407.75;;;7.93;87.94
76022;BME280;64718;52.124;6.226;2023-04-25T08:26:53;101428.59;;;6.52;98.51
76022;BME280;64718;52.124;6.226;2023-04-25T08:29:20;101437.03;;;6.08;100.00
76022;BME280;64718;52.124;6.226;2023-04-25T08:31:49;101441.50;;;5.96;100.00
76022;BME280;64718;52.124;6.226;2023-04-25T08:34:17;101442.38;;;5.94;100.00
76022;BME280;64718;52.124;6.226;2023-04-25T08:36:44;101437.28;;;5.89;100.00
76022;BME280;64718;52.124;6.226;2023-04-25T08:39:11;101423.94;;;6.20;100.00
76022;BME280;64718;52.124;6.226;2023-04-25T08:41:38;101420.00;;;6.51;100.00
76022;BME280;64718;52.124;6.226;2023-04-25T08:44:08;101409.13;;;6.82;100.00
76022;BME280;64718;52.124;6.226;2023-04-25T08:46:37;101403.31;;;7.17;100.00
76022;BME280;64718;52.124;6.226;2023-04-25T08:49:05;101412.31;;;7.41;97.13
76022;BME280;64718;52.124;6.226;2023-04-25T08:51:36;101412.78;;;7.61;95.87
76022;BME280;64718;52.124;6.226;2023-04-25T08:54:11;101414.53;;;7.99;94.50
76022;BME280;64718;52.124;6.226;2023-04-25T08:56:38;101415.38;;;8.00;89.88
76022;BME280;64718;52.124;6.226;2023-04-25T08:59:07;101413.94;;;8.25;91.41
76022;BME280;64718;52.124;6.226;2023-04-25T09:01:34;101428.88;;;8.51;88.19
76022;BME280;64718;52.124;6.226;2023-04-25T09:04:01;101420.84;;;8.62;88.45
76022;BME280;64718;52.124;6.226;2023-04-25T09:06:29;101424.69;;;8.81;86.18
76022;BME280;64718;52.124;6.226;2023-04-25T09:09:01;101424.16;;;8.68;85.81
76022;BME280;64718;52.124;6.226;2023-04-25T09:11:28;101429.06;;;8.79;85.56
76022;BME280;64718;52.124;6.226;2023-04-25T09:14:11;101434.91;;;9.19;86.82
76022;BME280;64718;52.124;6.226;2023-04-25T09:16:57;101433.34;;;9.74;81.69
76022;BME280;64718;52.124;6.226;2023-04-25T09:19:25;101432.13;;;11.20;80.90
76022;BME280;64718;52.124;6.226;2023-04-25T09:21:55;101431.88;;;11.74;75.06
76022;BME280;64718;52.124;6.226;2023-04-25T09:24:33;101432.94;;;12.15;71.78
76022;BME280;64718;52.124;6.226;2023-04-25T09:26:59;101431.25;;;12.14;72.32
76022;BME280;64718;52.124;6.226;2023-04-25T09:29:30;101428.13;;;12.48;70.92
76022;BME280;64718;52.124;6.226;2023-04-25T09:32:15;101425.16;;;12.35;70.94
76022;BME280;64718;52.124;6.226;2023-04-25T09:34:43;101442.06;;;10.84;75.63
76022;BME280;64718;52.124;6.226;2023-04-25T09:37:13;101451.44;;;9.48;82.03
76022;BME280;64718;52.124;6.226;2023-04-25T09:39:44;101469.91;;;8.32;89.43
76022;BME280;64718;52.124;6.226;2023-04-25T09:42:11;101475.56;;;7.26;91.43
76022;BME280;64718;52.124;6.226;2023-04-25T09:44:42;101470.63;;;7.14;92.38
76022;BME280;64718;52.124;6.226;2023-04-25T09:47:09;101471.34;;;7.22;94.00
76022;BME280;64718;52.124;6.226;2023-04-25T09:49:38;101466.59;;;7.44;91.61
76022;BME280;64718;52.124;6.226;2023-04-25T09:52:05;101481.50;;;7.76;88.40
76022;BME280;64718;52.124;6.226;2023-04-25T09:54:33;101473.47;;;8.28;87.19
76022;BME280;64718;52.124;6.226;2023-04-25T09:57:07;101464.19;;;8.92;85.46
76022;BME280;64718;52.124;6.226;2023-04-25T09:59:38;101461.78;;;9.49;80.50
76022;BME280;64718;52.124;6.226;2023-04-25T10:02:06;101474.63;;;9.85;80.94
76022;BME280;64718;52.124;6.226;2023-04-25T10:04:34;101475.66;;;9.78;73.76
76022;BME280;64718;52.124;6.226;2023-04-25T10:07:02;101465.09;;;10.13;78.07
76022;BME280;64718;52.124;6.226;2023-04-25T10:09:33;101470.47;;;10.37;77.45
76022;BME280;64718;52.124;6.226;2023-04-25T10:12:00;101465.75;;;10.50;75.14
76022;BME280;64718;52.124;6.226;2023-04-25T10:14:26;101463.50;;;10.65;74.07
76022;BME280;64718;52.124;6.226;2023-04-25T10:16:54;101459.44;;;10.57;71.78
76022;BME280;64718;52.124;6.226;2023-04-25T10:19:22;101465.72;;;10.76;71.07
76022;BME280;64718;52.124;6.226;2023-04-25T10:21:52;101461.22;;;10.81;69.39
76022;BME280;64718;52.124;6.226;2023-04-25T10:24:20;101454.78;;;11.18;71.53
76022;BME280;64718;52.124;6.226;2023-04-25T10:26:50;101460.41;;;11.30;66.25
76022;BME280;64718;52.124;6.226;2023-04-25T10:29:22;101461.81;;;11.87;69.91
76022;BME280;64718;52.124;6.226;2023-04-25T10:31:50;101461.81;;;11.64;64.18
76022;BME280;64718;52.124;6.226;2023-04-25T10:34:17;101473.16;;;11.38;65.46
76022;BME280;64718;52.124;6.226;2023-04-25T10:36:49;101487.09;;;10.59;69.36
76022;BME280;64718;52.124;6.226;2023-04-25T10:39:21;101491.66;;;9.64;75.82
76022;BME280;64718;52.124;6.226;2023-04-25T10:41:53;101507.84;;;8.75;84.96
76022;BME280;64718;52.124;6.226;2023-04-25T10:44:21;101511.13;;;8.04;87.98
76022;BME280;64718;52.124;6.226;2023-04-25T10:46:48;101509.84;;;7.83;86.71
76022;BME280;64718;52.124;6.226;2023-04-25T10:49:34;101517.03;;;8.12;85.43
76022;BME280;64718;52.124;6.226;2023-04-25T10:52:14;101515.69;;;8.35;83.77
76022;BME280;64718;52.124;6.226;2023-04-25T10:54:42;101513.44;;;8.56;80.02
76022;BME280;64718;52.124;6.226;2023-04-25T10:57:28;101513.28;;;9.34;81.49
76022;BME280;64718;52.124;6.226;2023-04-25T10:59:58;101516.09;;;9.25;76.84
76022;BME280;64718;52.124;6.226;2023-04-25T11:02:26;101512.19;;;9.42;77.25
76022;BME280;64718;52.124;6.226;2023-04-25T11:04:53;101509.84;;;9.33;75.33
76022;BME280;64718;52.124;6.226;2023-04-25T11:07:28;101513.59;;;9.54;76.75
76022;BME280;64718;52.124;6.226;2023-04-25T11:10:01;101509.75;;;9.67;73.48
76022;BME280;64718;52.124;6.226;2023-04-25T11:12:30;101511.66;;;9.92;73.04
76022;BME280;64718;52.124;6.226;2023-04-25T11:15:01;101510.59;;;9.68;70.32
76022;BME280;64718;52.124;6.226;2023-04-25T11:17:28;101501.28;;;9.61;70.74
76022;BME280;64718;52.124;6.226;2023-04-25T11:19:55;101509.97;;;9.60;70.26
76022;BME280;64718;52.124;6.226;2023-04-25T11:22:23;101515.19;;;9.58;69.77
76022;BME280;64718;52.124;6.226;2023-04-25T11:24:49;101513.16;;;9.69;70.91
76022;BME280;64718;52.124;6.226;2023-04-25T11:27:16;101521.47;;;9.51;70.29
76022;BME280;64718;52.124;6.226;2023-04-25T11:29:44;101509.78;;;9.97;70.46
76022;BME280;64718;52.124;6.226;2023-04-25T11:32:13;101499.56;;;10.76;73.87
76022;BME280;64718;52.124;6.226;2023-04-25T11:34:43;101508.16;;;10.78;68.45
76022;BME280;64718;52.124;6.226;2023-04-25T11:37:10;101509.31;;;10.96;68.90
76022;BME280;64718;52.124;6.226;2023-04-25T11:39:37;101504.41;;;11.38;69.42
76022;BME280;64718;52.124;6.226;2023-04-25T11:42:04;101513.53;;;11.75;70.39
76022;BME280;64718;52.124;6.226;2023-04-25T11:44:30;101503.22;;;11.71;67.24
76022;BME280;64718;52.124;6.226;2023-04-25T11:46:58;101506.91;;;10.63;63.87
76022;BME280;64718;52.124;6.226;2023-04-25T11:49:30;101509.88;;;10.53;68.70
76022;BME280;64718;52.124;6.226;2023-04-25T11:51:56;101503.91;;;10.49;66.37
76022;BME280;64718;52.124;6.226;2023-04-25T11:54:23;101510.94;;;10.16;60.21
76022;BME280;64718;52.124;6.226;2023-04-25T11:56:50;101506.81;;;10.38;63.46
76022;BME280;64718;52.124;6.226;2023-04-25T11:59:16;101495.38;;;10.97;61.83
76022;BME280;64718;52.124;6.226;2023-04-25T12:01:48;101491.50;;;11.35;56.05
76022;BME280;64718;52.124;6.226;2023-04-25T12:04:17;101496.53;;;11.64;56.43
76022;BME280;64718;52.124;6.226;2023-04-25T12:06:48;101490.69;;;12.28;55.71
76022;BME280;64718;52.124;6.226;2023-04-25T12:09:16;101496.22;;;13.26;55.40
76022;BME280;64718;52.124;6.226;2023-04-25T12:11:44;101504.34;;;12.98;52.00
76022;BME280;64718;52.124;6.226;2023-04-25T12:14:11;101516.41;;;12.37;55.17
76022;BME280;64718;52.124;6.226;2023-04-25T12:16:42;101521.88;;;11.84;62.96
76022;BME280;64718;52.124;6.226;2023-04-25T12:19:08;101528.44;;;10.95;65.38
76022;BME280;64718;52.124;6.226;2023-04-25T12:21:36;101529.59;;;10.86;65.38
76022;BME280;64718;52.124;6.226;2023-04-25T12:24:10;101535.75;;;10.84;67.11
76022;BME280;64718;52.124;6.226;2023-04-25T12:26:51;101533.13;;;10.57;65.15
76022;BME280;64718;52.124;6.226;2023-04-25T12:29:19;101537.03;;;10.97;64.45
76022;BME280;64718;52.124;6.226;2023-04-25T12:31:46;101533.25;;;11.07;60.55
76022;BME280;64718;52.124;6.226;2023-04-25T12:34:12;101539.44;;;10.76;60.74
76022;BME280;64718;52.124;6.226;2023-04-25T12:36:40;101534.44;;;10.70;60.25
76022;BME280;64718;52.124;6.226;2023-04-25T12:39:07;101547.09;;;10.25;61.89
76022;BME280;64718;52.124;6.226;2023-04-25T12:41:34;101548.22;;;11.00;59.45
76022;BME280;64718;52.124;6.226;2023-04-25T12:44:00;101542.28;;;11.47;58.89
76022;BME280;64718;52.124;6.226;2023-04-25T12:46:27;101540.44;;;11.75;58.11
76022;BME280;64718;52.124;6.226;2023-04-25T12:48:53;101535.81;;;12.07;55.00
76022;BME280;64718;52.124;6.226;2023-04-25T12:51:20;101534.72;;;12.12;54.08
76022;BME280;64718;52.124;6.226;2023-04-25T12:53:51;101522.03;;;12.92;55.55
76022;BME280;64718;52.124;6.226;2023-04-25T12:56:18;101536.66;;;13.16;55.89